Ginys del Meteocat

Dades de l'estació automàtica Pantà de Riba-roja

?
?
Resum diari 21:30 TU
Dades diàries de l'estació meteorològica
Temperatura mitjana 6.5 °C
Temperatura màxima 12.1 °C 15:05 TU
Temperatura mínima 3.8 °C 2:46 TU
Humitat relativa mitjana 93%
Precipitació acumulada 0.1 mm
Ratxa màxima del vent (2 m) 20.9 km/h - 276º 13:29 TU
Irradiació solar global 9.1 MJ/m2

El tram horari està expressat en Temps Universal (TU). Cal sumar una hora en horari d'hivern i dues en horari d'estiu per passar a l'hora oficial.

Pantà de Riba-roja

Metadades estació meteorol´gica
Municipi Riba-roja d'Ebre
Comarca Ribera d'Ebre
Altitud 69 m
Data alta 18.11.1996
Estat actual Operativa
Dades de període
Període
TU
TM
°C
TX
°C
TN
°C
HRM
%
PPT
mm
VVM (2 m)
km/h
DVM (2 m)
graus
VVX (2 m)
km/h
RS
W/m2
00:00 - 00:30 4.8 4.9 4.7 98 0.0 0.4 70 2.9 0
00:30 - 01:00 4.9 4.9 4.8 98 0.0 0.7 312 2.5 0
01:00 - 01:30 4.9 4.9 4.7 99 0.0 0.7 314 2.5 0
01:30 - 02:00 4.6 4.8 4.3 99 0.0 0.4 287 2.2 0
02:00 - 02:30 4.0 4.3 3.9 99 0.0 0.4 281 2.5 0
02:30 - 03:00 4.1 4.2 3.8 99 0.0 3.2 312 8.6 0
03:00 - 03:30 4.2 4.3 4.1 99 0.1 4.7 318 7.9 0
03:30 - 04:00 4.3 4.4 4.2 99 0.0 3.2 283 11.5 0
04:00 - 04:30 4.4 4.5 4.3 99 0.0 2.5 310 6.8 0
04:30 - 05:00 4.3 4.5 4.2 99 0.0 3.6 262 7.6 0
05:00 - 05:30 4.4 4.5 4.3 99 0.0 0.7 237 4.3 0
05:30 - 06:00 4.4 4.6 4.3 99 0.0 2.2 240 7.9 0
06:00 - 06:30 4.4 4.5 4.3 99 0.0 2.2 242 6.1 0
06:30 - 07:00 4.4 4.4 4.3 99 0.0 4.3 246 9.7 0
07:00 - 07:30 4.2 4.3 4.1 99 0.0 6.1 254 11.2 3
07:30 - 08:00 4.0 4.2 4.0 99 0.0 5.8 250 10.8 15
08:00 - 08:30 4.1 4.2 4.1 99 0.0 5.0 232 8.6 38
08:30 - 09:00 4.2 4.3 4.0 99 0.0 6.5 243 12.6 86
09:00 - 09:30 4.4 4.5 4.2 99 0.0 7.9 259 13.3 150
09:30 - 10:00 4.5 4.6 4.4 99 0.0 11.9 262 19.8 168
10:00 - 10:30 4.8 5.2 4.5 99 0.0 13.0 261 19.8 347
10:30 - 11:00 5.6 5.8 5.2 96 0.0 11.2 266 19.8 438
11:00 - 11:30 6.2 6.7 5.7 91 0.0 7.6 270 14.0 422
11:30 - 12:00 6.8 7.5 6.1 90 0.0 6.5 262 13.0 429
12:00 - 12:30 7.5 8.0 7.2 87 0.0 9.0 255 20.5 411
12:30 - 13:00 8.0 8.4 7.4 86 0.0 9.7 265 17.3 474
13:00 - 13:30 8.9 9.4 8.3 84 0.0 10.8 263 20.9 444
13:30 - 14:00 9.9 10.7 9.5 80 0.0 11.2 266 19.1 447
14:00 - 14:30 11.2 11.5 10.8 77 0.0 7.9 248 15.1 379
14:30 - 15:00 11.6 11.9 11.3 75 0.0 7.6 251 16.6 319
15:00 - 15:30 11.8 12.1 11.5 75 0.0 9.0 249 18.4 269
15:30 - 16:00 11.4 11.5 11.3 78 0.0 8.6 240 17.6 157
16:00 - 16:30 11.0 11.3 10.6 79 0.0 6.5 238 15.5 45
16:30 - 17:00 10.0 10.5 9.6 84 0.0 7.6 289 14.8 16
17:00 - 17:30 9.5 9.7 9.1 85 0.0 9.7 263 13.3 2
17:30 - 18:00 8.7 9.2 8.4 88 0.0 7.9 337 13.3 0
18:00 - 18:30 7.7 8.3 7.2 91 0.0 6.5 298 10.8 0
18:30 - 19:00 7.2 7.3 7.2 93 0.0 4.7 301 8.3 0
19:00 - 19:30 7.2 7.3 6.9 94 0.0 6.5 330 9.7 0
19:30 - 20:00 7.0 7.1 6.8 94 0.0 4.7 299 9.7 0
20:00 - 20:30 7.1 7.2 7.0 94 0.0 6.8 340 9.7 0
20:30 - 21:00 6.9 7.0 6.8 94 0.0 5.0 306 9.4 0
21:00 - 21:30 6.9 7.0 6.7 94 0.0 4.7 321 7.9 0
21:30 - 22:00 6.6 6.7 6.5 95 0.0 5.8 342 8.6 0

Les dades en taronja només han passat un control de qualitat automàtic. Resta pendent la seva validació definitiva.